createdAt,value
2022-07-30T00:01:53.479Z,11.25
2022-07-30T00:04:20.610Z,12.65
2022-07-30T00:06:47.607Z,10.65
2022-07-30T00:09:14.477Z,11.80
2022-07-30T00:11:41.693Z,9.75
2022-07-30T00:14:09.151Z,9.68
2022-07-30T00:16:36.677Z,12.05
2022-07-30T00:19:04.016Z,9.48
2022-07-30T00:21:35.952Z,12.93
2022-07-30T00:24:07.177Z,9.98
2022-07-30T00:26:34.301Z,11.70
2022-07-30T00:29:01.925Z,13.50
2022-07-30T00:31:28.750Z,12.32
2022-07-30T00:33:55.756Z,9.15
2022-07-30T00:36:22.979Z,13.52
2022-07-30T00:38:50.391Z,9.30
2022-07-30T00:41:17.346Z,15.77
2022-07-30T00:43:45.636Z,10.43
2022-07-30T00:46:12.772Z,11.63
2022-07-30T00:48:39.697Z,11.15
2022-07-30T00:51:07.038Z,9.27
2022-07-30T00:53:34.919Z,13.18
2022-07-30T00:56:03.172Z,11.75
2022-07-30T00:58:30.155Z,12.07
2022-07-30T01:00:57.166Z,12.25
2022-07-30T01:03:24.454Z,9.43
2022-07-30T01:05:51.653Z,11.68
2022-07-30T01:08:18.898Z,9.90
2022-07-30T01:10:45.780Z,15.05
2022-07-30T01:13:13.426Z,18.75
2022-07-30T01:15:40.549Z,11.10
2022-07-30T01:18:11.692Z,8.85
2022-07-30T01:20:52.392Z,9.77
2022-07-30T01:23:36.940Z,10.80
2022-07-30T01:26:18.716Z,7.68
2022-07-30T01:28:52.800Z,11.93
2022-07-30T01:31:22.726Z,11.77
2022-07-30T01:33:50.645Z,12.20
2022-07-30T01:36:22.756Z,11.88
2022-07-30T01:38:51.552Z,11.38
2022-07-30T01:41:19.769Z,10.02
2022-07-30T01:43:47.693Z,10.18
2022-07-30T01:46:17.913Z,11.00
2022-07-30T01:48:46.263Z,10.68
2022-07-30T01:51:14.036Z,13.93
2022-07-30T01:53:42.834Z,9.90
2022-07-30T01:56:16.922Z,10.32
2022-07-30T01:58:47.367Z,8.63
2022-07-30T02:01:14.489Z,11.90
2022-07-30T02:03:42.800Z,10.80
2022-07-30T02:06:23.885Z,10.20
2022-07-30T02:08:58.718Z,11.07
2022-07-30T02:11:44.449Z,11.80
2022-07-30T02:14:27.080Z,10.88
2022-07-30T02:17:02.422Z,8.45
2022-07-30T02:19:43.271Z,11.18
2022-07-30T02:22:16.932Z,8.45
2022-07-30T02:24:48.795Z,7.00
2022-07-30T02:27:23.252Z,11.85
2022-07-30T02:29:53.143Z,8.90
2022-07-30T02:32:23.893Z,8.30
2022-07-30T02:35:10.541Z,8.93
2022-07-30T02:37:43.723Z,7.07
2022-07-30T02:40:16.454Z,8.73
2022-07-30T02:42:49.028Z,7.85
2022-07-30T02:45:20.840Z,9.40
2022-07-30T02:47:56.669Z,6.20
2022-07-30T02:50:25.324Z,7.57
2022-07-30T02:52:54.830Z,8.85
2022-07-30T02:55:23.295Z,8.93
2022-07-30T02:57:52.596Z,7.05
2022-07-30T03:00:21.816Z,5.93
2022-07-30T03:02:49.574Z,8.02
2022-07-30T03:05:16.618Z,7.43
2022-07-30T03:07:44.624Z,12.20
2022-07-30T03:10:13.172Z,6.75
2022-07-30T03:12:44.956Z,6.53
2022-07-30T03:15:12.207Z,10.00
2022-07-30T03:17:44.424Z,6.72
2022-07-30T03:20:16.307Z,8.38
2022-07-30T03:22:47.693Z,7.32
2022-07-30T03:25:17.254Z,6.20
2022-07-30T03:27:45.349Z,6.28
2022-07-30T03:30:13.020Z,8.20
2022-07-30T03:32:40.739Z,7.40
2022-07-30T03:35:16.928Z,6.13
2022-07-30T03:37:46.310Z,8.10
2022-07-30T03:40:15.183Z,5.88
2022-07-30T03:42:42.600Z,7.07
2022-07-30T03:45:11.044Z,6.82
2022-07-30T03:47:40.629Z,7.30
2022-07-30T03:50:10.335Z,7.80
2022-07-30T03:52:40.993Z,6.15
2022-07-30T03:55:11.280Z,5.93
2022-07-30T03:57:38.819Z,6.38
2022-07-30T04:00:15.029Z,9.00
2022-07-30T04:02:44.424Z,6.25
2022-07-30T04:05:16.803Z,7.80
2022-07-30T04:07:45.203Z,5.88
2022-07-30T04:10:14.111Z,7.68
2022-07-30T04:12:41.008Z,5.82
2022-07-30T04:16:38.156Z,7.55
2022-07-30T04:18:02.774Z,9.23
2022-07-30T04:20:42.325Z,5.35
2022-07-30T04:23:11.239Z,8.45
2022-07-30T04:25:40.456Z,8.88
2022-07-30T04:28:07.605Z,4.68
2022-07-30T04:30:35.073Z,4.32
2022-07-30T04:33:04.860Z,9.43
2022-07-30T04:35:50.592Z,4.60
2022-07-30T04:38:19.936Z,4.78
2022-07-30T04:40:47.871Z,5.20
2022-07-30T04:43:15.860Z,6.15
2022-07-30T04:45:43.033Z,7.40
2022-07-30T04:48:09.856Z,4.07
2022-07-30T04:50:41.967Z,4.93
2022-07-30T04:53:10.094Z,6.30
2022-07-30T04:55:43.701Z,6.80
2022-07-30T04:58:12.585Z,6.70
2022-07-30T05:00:41.517Z,5.43
2022-07-30T05:03:12.900Z,5.13
2022-07-30T05:05:41.527Z,4.43
2022-07-30T05:08:09.405Z,2.55
2022-07-30T05:10:38.306Z,4.95
2022-07-30T05:13:05.301Z,6.35
2022-07-30T05:15:36.960Z,6.68
2022-07-30T05:18:04.818Z,8.80
2022-07-30T05:20:31.955Z,7.55
2022-07-30T05:22:58.852Z,7.30
2022-07-30T05:25:25.969Z,5.75
2022-07-30T05:27:53.318Z,6.43
2022-07-30T05:30:25.199Z,5.88
2022-07-30T05:32:54.686Z,4.40
2022-07-30T05:35:23.526Z,5.97
2022-07-30T05:37:50.359Z,3.97
2022-07-30T05:40:17.380Z,9.10
2022-07-30T05:42:44.186Z,4.82
2022-07-30T05:45:11.443Z,9.50
2022-07-30T05:47:38.301Z,4.80
2022-07-30T05:50:05.779Z,6.05
2022-07-30T05:52:33.484Z,4.95
2022-07-30T05:55:00.398Z,8.48
2022-07-30T05:57:27.442Z,8.85
2022-07-30T05:59:54.300Z,5.80
2022-07-30T06:02:24.474Z,3.65
2022-07-30T06:04:51.910Z,4.68
2022-07-30T06:07:18.762Z,5.43
2022-07-30T06:09:45.556Z,4.80
2022-07-30T06:12:12.362Z,8.48
2022-07-30T06:14:39.182Z,6.18
2022-07-30T06:17:06.354Z,4.82
2022-07-30T06:19:33.246Z,4.57
2022-07-30T06:22:06.419Z,7.65
2022-07-30T06:24:34.521Z,5.97
2022-07-30T06:27:01.784Z,7.57
2022-07-30T06:29:29.242Z,5.88
2022-07-30T06:31:56.263Z,3.75
2022-07-30T06:34:23.218Z,6.35
2022-07-30T06:36:50.324Z,5.53
2022-07-30T06:39:53.791Z,6.68
2022-07-30T06:42:04.637Z,6.88
2022-07-30T06:44:31.507Z,4.45
2022-07-30T06:47:00.881Z,3.25
2022-07-30T06:49:33.098Z,3.42
2022-07-30T06:52:00.866Z,6.28
2022-07-30T06:54:28.087Z,6.95
2022-07-30T06:56:55.230Z,6.65
2022-07-30T06:59:22.833Z,3.50
2022-07-30T07:01:50.654Z,3.85
2022-07-30T07:04:17.628Z,3.78
2022-07-30T07:06:44.452Z,3.60
2022-07-30T07:09:11.351Z,3.33
2022-07-30T07:11:38.488Z,7.32
2022-07-30T07:14:05.485Z,5.93
2022-07-30T07:16:32.514Z,3.25
2022-07-30T07:18:59.368Z,4.72
2022-07-30T07:21:26.316Z,3.15
2022-07-30T07:23:53.429Z,3.45
2022-07-30T07:26:20.300Z,1.88
2022-07-30T07:28:47.123Z,3.33
2022-07-30T07:32:02.589Z,3.05
2022-07-30T07:34:01.051Z,3.30
2022-07-30T07:36:28.625Z,7.72
2022-07-30T07:38:55.766Z,3.15
2022-07-30T07:41:23.105Z,5.15
2022-07-30T07:43:49.935Z,4.70
2022-07-30T07:46:34.095Z,6.72
2022-07-30T07:49:01.821Z,5.72
2022-07-30T07:51:47.522Z,4.20
2022-07-30T07:54:21.478Z,6.03
2022-07-30T07:56:52.931Z,4.15
2022-07-30T07:59:20.269Z,3.50
2022-07-30T08:01:47.379Z,4.10
2022-07-30T08:04:17.770Z,2.85
2022-07-30T08:06:44.613Z,3.42
2022-07-30T08:09:11.454Z,2.58
2022-07-30T08:11:38.633Z,4.07
2022-07-30T08:14:05.424Z,4.93
2022-07-30T08:16:32.323Z,3.45
2022-07-30T08:18:59.268Z,5.22
2022-07-30T08:21:26.141Z,2.63
2022-07-30T08:23:52.952Z,2.20
2022-07-30T08:26:19.993Z,3.13
2022-07-30T08:28:46.975Z,3.05
2022-07-30T08:31:13.938Z,3.97
2022-07-30T08:33:40.736Z,2.72
2022-07-30T08:36:09.014Z,2.80
2022-07-30T08:38:38.343Z,2.30
2022-07-30T08:41:05.687Z,2.38
2022-07-30T08:43:33.432Z,4.10
2022-07-30T08:46:01.344Z,2.33
2022-07-30T08:48:29.772Z,4.45
2022-07-30T08:50:57.225Z,2.38
2022-07-30T08:53:25.482Z,8.13
2022-07-30T08:55:56.838Z,2.58
2022-07-30T08:58:31.830Z,2.58
2022-07-30T09:00:58.724Z,2.25
2022-07-30T09:03:25.554Z,2.22
2022-07-30T09:05:52.458Z,3.17
2022-07-30T09:08:19.911Z,3.15
2022-07-30T09:10:52.708Z,3.72
2022-07-30T09:13:41.899Z,5.28
2022-07-30T09:16:19.746Z,6.68
2022-07-30T09:18:46.542Z,7.88
2022-07-30T09:21:26.413Z,3.80
2022-07-30T09:24:01.586Z,2.92
2022-07-30T09:29:15.601Z,6.25
2022-07-30T09:32:00.728Z,2.97
2022-07-30T09:34:37.456Z,3.22
2022-07-30T09:37:24.523Z,4.97
2022-07-30T09:39:58.917Z,3.85
2022-07-30T09:42:29.018Z,2.53
2022-07-30T09:45:11.363Z,3.35
2022-07-30T09:47:41.853Z,3.58
2022-07-30T09:50:29.305Z,8.38
2022-07-30T09:53:09.325Z,2.60
2022-07-30T09:55:41.106Z,5.70
2022-07-30T09:58:08.720Z,4.75
2022-07-30T10:00:37.709Z,4.43
2022-07-30T10:03:41.613Z,3.75
2022-07-30T10:06:11.664Z,3.67
2022-07-30T10:08:51.956Z,2.75
2022-07-30T10:11:24.032Z,2.75
2022-07-30T10:14:03.208Z,3.00
2022-07-30T10:16:30.672Z,3.65
2022-07-30T10:19:00.279Z,2.97
2022-07-30T10:21:28.606Z,2.85
2022-07-30T10:23:59.828Z,3.50
2022-07-30T10:26:28.699Z,3.47
2022-07-30T10:28:56.095Z,3.92
2022-07-30T10:31:49.219Z,3.17
2022-07-30T10:34:11.721Z,3.20
2022-07-30T10:36:45.172Z,4.30
2022-07-30T10:39:19.326Z,2.58
2022-07-30T10:42:51.145Z,5.93
2022-07-30T10:46:09.281Z,6.40
2022-07-30T10:48:47.177Z,3.83
2022-07-30T10:51:25.194Z,3.60
2022-07-30T10:54:01.683Z,2.60
2022-07-30T10:56:28.885Z,3.10
2022-07-30T10:59:08.389Z,4.25
2022-07-30T11:01:51.684Z,3.80
2022-07-30T11:04:29.871Z,5.45
2022-07-30T11:07:23.628Z,3.47
2022-07-30T11:10:08.833Z,3.25
2022-07-30T11:12:42.268Z,2.47
2022-07-30T11:15:18.607Z,4.72
2022-07-30T11:18:02.852Z,5.43
2022-07-30T11:20:35.273Z,5.23
2022-07-30T11:23:20.464Z,3.20
2022-07-30T11:25:51.171Z,3.10
2022-07-30T11:28:38.181Z,3.28
2022-07-30T11:31:49.871Z,5.60
2022-07-30T11:34:18.975Z,4.20
2022-07-30T11:37:18.390Z,3.80
2022-07-30T11:39:55.041Z,3.95
2022-07-30T11:42:27.339Z,4.50
2022-07-30T11:45:16.859Z,4.95
2022-07-30T11:47:53.616Z,4.85
2022-07-30T11:50:23.640Z,4.80
2022-07-30T11:52:53.730Z,2.17
2022-07-30T11:55:42.620Z,1.88
2022-07-30T11:58:24.640Z,3.15
2022-07-30T12:00:52.900Z,2.00
2022-07-30T12:03:23.288Z,2.13
2022-07-30T12:05:52.591Z,2.58
2022-07-30T12:08:35.092Z,2.42
2022-07-30T12:11:03.638Z,3.25
2022-07-30T12:13:45.208Z,4.90
2022-07-30T12:16:17.884Z,2.20
2022-07-30T12:18:46.813Z,3.35
2022-07-30T12:21:17.754Z,2.20
2022-07-30T12:23:56.625Z,3.00
2022-07-30T12:26:34.782Z,3.60
2022-07-30T12:29:05.358Z,4.03
2022-07-30T12:31:34.002Z,2.25
2022-07-30T12:34:01.236Z,2.85
2022-07-30T12:36:35.964Z,2.03
2022-07-30T12:39:06.796Z,3.50
2022-07-30T12:41:48.898Z,2.58
2022-07-30T12:44:51.457Z,2.75
2022-07-30T12:47:20.446Z,2.97
2022-07-30T12:49:49.637Z,4.22
2022-07-30T12:52:36.095Z,3.72
2022-07-30T12:55:09.132Z,2.30
2022-07-30T12:58:01.703Z,2.58
2022-07-30T13:00:52.410Z,3.10
2022-07-30T13:03:24.116Z,2.03
2022-07-30T13:05:55.546Z,2.63
2022-07-30T13:08:52.684Z,1.40
2022-07-30T13:11:23.258Z,2.13
2022-07-30T13:13:51.136Z,1.90
2022-07-30T13:16:19.828Z,1.33
2022-07-30T13:18:47.122Z,1.73
2022-07-30T13:21:14.174Z,1.83
2022-07-30T13:23:41.938Z,2.10
2022-07-30T13:26:11.029Z,1.77
2022-07-30T13:28:38.589Z,2.90
2022-07-30T13:31:07.917Z,1.67
2022-07-30T13:33:38.827Z,3.17
2022-07-30T13:36:09.219Z,1.13
2022-07-30T13:38:36.383Z,2.45
2022-07-30T13:41:05.096Z,1.52
2022-07-30T13:43:33.988Z,1.10
2022-07-30T13:46:03.173Z,0.95
2022-07-30T13:48:30.657Z,1.00
2022-07-30T13:50:57.647Z,1.48
2022-07-30T13:53:24.468Z,0.73
2022-07-30T13:55:51.340Z,1.15
2022-07-30T13:58:18.353Z,2.63
2022-07-30T14:00:47.869Z,0.70
2022-07-30T14:03:16.133Z,2.08
2022-07-30T14:05:43.909Z,4.22
2022-07-30T14:08:12.265Z,4.90
2022-07-30T14:10:40.493Z,1.95
2022-07-30T14:13:20.752Z,2.42
2022-07-30T14:15:48.660Z,1.35
2022-07-30T14:18:15.552Z,2.45
2022-07-30T14:20:45.604Z,1.35
2022-07-30T14:23:16.432Z,1.83
2022-07-30T14:25:44.385Z,2.47
2022-07-30T14:28:11.301Z,1.17
2022-07-30T14:30:38.262Z,0.80
2022-07-30T14:33:05.346Z,1.02
2022-07-30T14:35:32.446Z,0.73
2022-07-30T14:37:59.404Z,0.98
2022-07-30T14:40:26.345Z,0.80
2022-07-30T14:42:56.165Z,0.98
2022-07-30T14:45:23.468Z,1.08
2022-07-30T14:47:50.300Z,1.15
2022-07-30T14:50:17.219Z,1.02
2022-07-30T14:52:45.299Z,1.63
2022-07-30T14:55:12.104Z,1.23
2022-07-30T14:57:38.992Z,1.63
2022-07-30T15:00:10.929Z,1.85
2022-07-30T15:02:38.413Z,1.65
2022-07-30T15:05:06.188Z,1.75
2022-07-30T15:07:34.871Z,1.70
2022-07-30T15:10:02.708Z,1.38
2022-07-30T15:12:29.945Z,1.55
2022-07-30T15:14:56.869Z,1.15
2022-07-30T15:17:24.589Z,1.38
2022-07-30T15:19:51.656Z,2.35
2022-07-30T15:22:20.371Z,1.58
2022-07-30T15:24:47.934Z,1.45
2022-07-30T15:27:14.872Z,1.85
2022-07-30T15:29:42.059Z,2.05
2022-07-30T15:32:09.126Z,1.90
2022-07-30T15:34:36.068Z,2.88
2022-07-30T15:37:05.608Z,2.85
2022-07-30T15:39:34.303Z,2.35
2022-07-30T15:42:02.851Z,1.70
2022-07-30T15:44:30.462Z,2.17
2022-07-30T15:46:57.737Z,2.13
2022-07-30T15:49:24.747Z,3.58
2022-07-30T15:51:52.089Z,1.80
2022-07-30T15:54:23.222Z,1.70
2022-07-30T15:56:52.024Z,3.97
2022-07-30T15:59:18.866Z,3.35
2022-07-30T16:01:45.834Z,3.63
2022-07-30T16:04:19.725Z,1.95
2022-07-30T16:06:48.580Z,1.53
2022-07-30T16:09:16.592Z,2.05
2022-07-30T16:11:43.590Z,1.63
2022-07-30T16:14:11.159Z,1.85
2022-07-30T16:16:38.318Z,2.85
2022-07-30T16:19:05.226Z,2.67
2022-07-30T16:21:32.103Z,2.05
2022-07-30T16:23:59.484Z,2.83
2022-07-30T16:26:27.704Z,2.75
2022-07-30T16:28:54.741Z,2.40
2022-07-30T16:31:21.551Z,3.22
2022-07-30T16:33:48.435Z,2.20
2022-07-30T16:36:15.555Z,2.42
2022-07-30T16:38:42.484Z,2.00
2022-07-30T16:41:13.589Z,2.35
2022-07-30T16:43:41.158Z,2.80
2022-07-30T16:46:08.470Z,4.00
2022-07-30T16:48:35.388Z,2.20
2022-07-30T16:51:02.748Z,2.35
2022-07-30T16:53:29.855Z,2.00
2022-07-30T16:55:59.501Z,2.38
2022-07-30T16:58:28.337Z,2.75
2022-07-30T17:00:58.699Z,2.20
2022-07-30T17:03:26.388Z,3.08
2022-07-30T17:05:53.848Z,2.15
2022-07-30T17:08:24.555Z,2.38
2022-07-30T17:10:53.322Z,2.13
2022-07-30T17:13:20.827Z,2.05
2022-07-30T17:15:48.099Z,4.07
2022-07-30T17:18:16.002Z,2.30
2022-07-30T17:20:43.672Z,2.30
2022-07-30T17:23:10.913Z,3.13
2022-07-30T17:25:37.867Z,3.25
2022-07-30T17:28:05.249Z,3.60
2022-07-30T17:30:32.136Z,2.95
2022-07-30T17:32:58.999Z,3.05
2022-07-30T17:35:26.489Z,4.18
2022-07-30T17:37:53.545Z,2.75
2022-07-30T17:40:30.381Z,5.85
2022-07-30T17:43:04.209Z,2.30
2022-07-30T17:45:33.777Z,4.43
2022-07-30T17:48:01.913Z,3.42
2022-07-30T17:50:30.489Z,3.92
2022-07-30T17:52:57.973Z,3.03
2022-07-30T17:55:26.400Z,2.78
2022-07-30T17:57:53.215Z,2.80
2022-07-30T18:00:21.344Z,3.67
2022-07-30T18:02:48.585Z,2.55
2022-07-30T18:05:15.735Z,3.75
2022-07-30T18:07:43.982Z,5.07
2022-07-30T18:10:12.285Z,3.97
2022-07-30T18:12:39.751Z,3.97
2022-07-30T18:15:17.421Z,3.15
2022-07-30T18:17:45.534Z,4.30
2022-07-30T18:20:13.412Z,3.22
2022-07-30T18:22:40.674Z,4.57
2022-07-30T18:25:08.213Z,3.63
2022-07-30T18:27:45.617Z,3.22
2022-07-30T18:30:13.197Z,4.18
2022-07-30T18:32:39.987Z,3.83
2022-07-30T18:35:12.060Z,3.85
2022-07-30T18:37:41.730Z,4.70
2022-07-30T18:40:10.577Z,3.75
2022-07-30T18:42:37.466Z,3.88
2022-07-30T18:45:05.893Z,4.82
2022-07-30T18:47:32.890Z,6.53
2022-07-30T18:49:59.792Z,3.17
2022-07-30T18:52:26.759Z,4.50
2022-07-30T18:54:53.633Z,3.70
2022-07-30T18:57:20.561Z,4.90
2022-07-30T18:59:47.492Z,3.90
2022-07-30T19:02:14.778Z,3.53
2022-07-30T19:04:41.656Z,5.18
2022-07-30T19:07:08.600Z,4.88
2022-07-30T19:09:35.664Z,3.45
2022-07-30T19:12:03.692Z,3.55
2022-07-30T19:14:31.039Z,4.18
2022-07-30T19:16:59.482Z,2.80
2022-07-30T19:19:27.842Z,3.10
2022-07-30T19:21:55.088Z,2.25
2022-07-30T19:24:22.004Z,1.92
2022-07-30T19:26:49.496Z,4.35
2022-07-30T19:29:16.520Z,3.28
2022-07-30T19:31:43.360Z,3.03
2022-07-30T19:34:11.262Z,2.10
2022-07-30T19:36:38.588Z,2.70
2022-07-30T19:39:07.345Z,2.25
2022-07-30T19:41:40.789Z,2.40
2022-07-30T19:44:09.564Z,2.92
2022-07-30T19:46:37.515Z,2.28
2022-07-30T19:49:06.810Z,2.90
2022-07-30T19:52:07.398Z,5.53
2022-07-30T19:54:20.978Z,3.25
2022-07-30T19:56:48.681Z,3.15
2022-07-30T19:59:15.901Z,3.47
2022-07-30T20:01:44.337Z,2.35
2022-07-30T20:04:14.967Z,4.57
2022-07-30T20:06:46.176Z,2.55
2022-07-30T20:09:15.022Z,5.38
2022-07-30T20:11:43.480Z,7.80
2022-07-30T20:14:10.583Z,5.93
2022-07-30T20:16:37.988Z,5.25
2022-07-30T20:19:05.669Z,4.22
2022-07-30T20:21:57.006Z,6.68
2022-07-30T20:24:20.949Z,6.78
2022-07-30T20:26:47.969Z,5.20
2022-07-30T20:29:19.246Z,8.43
2022-07-30T20:31:47.123Z,4.55
2022-07-30T20:34:19.681Z,6.78
2022-07-30T20:36:47.948Z,6.00
2022-07-30T20:39:18.304Z,9.35
2022-07-30T20:41:45.346Z,8.73
2022-07-30T20:44:23.006Z,6.90
2022-07-30T20:46:50.806Z,5.60
2022-07-30T20:49:24.061Z,4.93
2022-07-30T20:51:55.769Z,5.75
2022-07-30T20:54:22.741Z,4.53
2022-07-30T20:56:51.078Z,6.25
2022-07-30T20:59:19.589Z,5.55
2022-07-30T21:01:51.017Z,6.00
2022-07-30T21:04:25.565Z,6.13
2022-07-30T21:06:53.407Z,5.88
2022-07-30T21:09:20.495Z,5.75
2022-07-30T21:11:50.629Z,6.32
2022-07-30T21:14:20.157Z,6.97
2022-07-30T21:16:47.636Z,4.75
2022-07-30T21:19:16.633Z,4.43
2022-07-30T21:21:48.738Z,5.20
2022-07-30T21:24:19.448Z,4.53
2022-07-30T21:26:51.423Z,5.60
2022-07-30T21:29:19.500Z,5.07
2022-07-30T21:32:00.689Z,4.45
2022-07-30T21:34:36.032Z,3.80
2022-07-30T21:37:09.180Z,4.88
2022-07-30T21:39:40.067Z,3.13
2022-07-30T21:42:08.439Z,5.13
2022-07-30T21:44:37.562Z,3.25
2022-07-30T21:47:08.395Z,3.83
2022-07-30T21:49:39.800Z,4.43
2022-07-30T21:52:08.860Z,4.18
2022-07-30T21:54:45.587Z,3.65
2022-07-30T21:57:16.732Z,4.03
2022-07-30T21:59:55.037Z,3.03
2022-07-30T22:02:23.826Z,4.13
2022-07-30T22:04:51.828Z,3.50
2022-07-30T22:07:18.704Z,2.33
2022-07-30T22:09:48.943Z,5.30
2022-07-30T22:12:18.366Z,2.97
2022-07-30T22:14:48.709Z,3.40
2022-07-30T22:17:23.434Z,2.17
2022-07-30T22:19:52.056Z,2.80
2022-07-30T22:22:27.288Z,2.85
2022-07-30T22:24:57.152Z,3.42
2022-07-30T22:27:25.400Z,4.95
2022-07-30T22:29:55.865Z,2.30
2022-07-30T22:32:24.192Z,2.70
2022-07-30T22:34:51.952Z,2.97
2022-07-30T22:37:21.555Z,2.25
2022-07-30T22:39:51.760Z,4.05
2022-07-30T22:42:24.283Z,3.60
2022-07-30T22:44:53.029Z,4.40
2022-07-30T22:47:50.286Z,2.65
2022-07-30T22:50:09.098Z,2.33
2022-07-30T22:52:40.257Z,2.70
2022-07-30T22:55:21.941Z,1.95
2022-07-30T22:58:07.689Z,2.03
2022-07-30T23:00:37.022Z,2.42
2022-07-30T23:03:07.716Z,2.28
2022-07-30T23:05:35.733Z,1.73
2022-07-30T23:08:04.003Z,1.58
2022-07-30T23:10:30.914Z,1.85
2022-07-30T23:12:59.022Z,3.70
2022-07-30T23:15:26.292Z,2.28
2022-07-30T23:17:53.334Z,2.97
2022-07-30T23:20:21.788Z,1.85
2022-07-30T23:22:49.833Z,2.35
2022-07-30T23:25:17.505Z,1.83
2022-07-30T23:27:46.873Z,2.45
2022-07-30T23:30:14.543Z,6.18
2022-07-30T23:32:42.245Z,2.85
2022-07-30T23:35:10.398Z,3.22
2022-07-30T23:37:48.750Z,3.78
2022-07-30T23:40:19.286Z,2.60
2022-07-30T23:42:47.917Z,3.50
2022-07-30T23:45:14.909Z,5.60
2022-07-30T23:48:01.966Z,7.13
2022-07-30T23:50:29.481Z,4.53
2022-07-30T23:52:56.282Z,4.18
2022-07-30T23:55:23.407Z,4.43
2022-07-30T23:57:50.429Z,5.45
